Terminal Aerodrome Forecast
Issued by NWS San Angelo, TX

Home | Current Version | Previous Version | Text Only | Print | Product List | Glossary On
Versions: 1 2 3 4 5 6 7 8 9 10 11 12 13 14 15 16 17 18 19 20 21
299
FTUS44 KSJT 310520
TAFABI
TAF
KABI 310520Z 3106/0106 16007KT P6SM SCT040 BKN250
     FM311200 16007KT P6SM BKN015
     FM311800 18011KT P6SM VCTS SCT035CB BKN250=

USA.gov is the U.S. government's official web portal to all federal, state and local government web resources and services.